Time;durP1;ratioP1;P1;durP2;ratioP2;P2;SDS_P1;SDS_P2;PMS_P1;PMS_P2;Temp;Humidity;BMP_temperature;BMP_pressure;BME280_temperature;BME280_humidity;BME280_pressure;Samples;Min_cycle;Max_cycle;Signal;HPM_P1;HPM_P2
2023/08/25 00:00:40;;;;;;;3.63;2.90;;;;;;;21.15;100.00;156802.25;5064912;28;20449;-88
2023/08/25 00:03:06;;;;;;;2.80;2.60;;;;;;;21.14;100.00;156800.94;5042247;28;20945;-88
2023/08/25 00:05:36;;;;;;;4.90;3.00;;;;;;;21.11;100.00;156791.81;5051339;28;20446;-88
2023/08/25 00:08:03;;;;;;;3.43;3.13;;;;;;;21.11;100.00;156791.81;5060539;28;20976;-89
2023/08/25 00:10:30;;;;;;;4.13;3.10;;;;;;;21.12;100.00;156794.44;5052015;28;20446;-88
2023/08/25 00:12:58;;;;;;;4.37;3.17;;;;;;;21.06;100.00;156780.06;5057097;28;20461;-88
2023/08/25 00:15:24;;;;;;;4.80;3.40;;;;;;;21.13;100.00;156797.00;5013567;28;20475;-89
2023/08/25 00:17:53;;;;;;;3.10;2.77;;;;;;;21.10;100.00;156789.22;5043589;28;20445;-88
2023/08/25 00:20:20;;;;;;;3.43;3.13;;;;;;;21.06;100.00;156778.69;5050910;28;20451;-88
2023/08/25 00:22:46;;;;;;;4.80;3.97;;;;;;;21.02;100.00;156768.28;5052819;28;20462;-88
2023/08/25 00:25:13;;;;;;;3.80;3.40;;;;;;;21.02;100.00;156768.28;5021814;28;20514;-88
2023/08/25 00:27:40;;;;;;;4.13;3.37;;;;;;;21.06;100.00;156778.69;5038593;28;20951;-89
2023/08/25 00:30:10;;;;;;;3.87;3.47;;;;;;;21.06;100.00;156778.69;5061020;28;20459;-89
2023/08/25 00:32:37;;;;;;;3.83;3.47;;;;;;;21.07;100.00;156781.38;5050983;28;20478;-88
2023/08/25 00:35:05;;;;;;;3.23;2.93;;;;;;;21.04;100.00;156773.50;5065656;28;20478;-88
2023/08/25 00:37:31;;;;;;;5.87;3.40;;;;;;;21.03;100.00;156772.19;5051231;28;21222;-88
2023/08/25 00:39:58;;;;;;;4.10;3.70;;;;;;;21.04;100.00;156774.81;5028792;28;20499;-88
2023/08/25 00:42:25;;;;;;;3.67;3.37;;;;;;;21.05;100.00;156776.06;5048209;28;20465;-88
2023/08/25 00:44:52;;;;;;;3.60;3.30;;;;;;;21.02;100.00;156769.56;5048482;28;20867;-88
2023/08/25 00:47:20;;;;;;;2.97;2.67;;;;;;;20.98;100.00;156759.13;5032242;28;20427;-89
2023/08/25 00:49:47;;;;;;;2.97;2.60;;;;;;;21.00;100.00;156763.03;5023898;28;20452;-89
2023/08/25 00:52:15;;;;;;;3.50;3.20;;;;;;;21.04;100.00;156773.50;5048668;28;20485;-89
2023/08/25 00:54:42;;;;;;;3.53;2.90;;;;;;;20.98;100.00;156757.81;5031944;28;20475;-89
2023/08/25 00:57:08;;;;;;;4.10;3.40;;;;;;;20.98;100.00;156757.81;5031933;28;20990;-89
2023/08/25 00:59:37;;;;;;;5.00;2.97;;;;;;;20.96;100.00;156752.63;5032654;28;20858;-89
2023/08/25 01:02:04;;;;;;;3.90;3.50;;;;;;;20.97;100.00;156755.25;5056355;28;20970;-89
2023/08/25 01:04:33;;;;;;;3.00;2.70;;;;;;;20.97;100.00;156755.25;5032955;28;20449;-89
2023/08/25 01:07:00;;;;;;;3.70;3.30;;;;;;;20.97;100.00;156755.25;5049674;28;20463;-89
2023/08/25 01:09:27;;;;;;;3.53;3.07;;;;;;;20.95;100.00;156751.31;5048964;28;20802;-89
2023/08/25 01:12:00;;;;;;;4.60;3.37;;;;;;;20.92;100.00;156742.16;5031556;28;20463;-89
2023/08/25 01:14:36;;;;;;;3.80;3.43;;;;;;;20.95;100.00;156750.00;5066846;28;20463;-89
2023/08/25 01:17:04;;;;;;;3.27;2.97;;;;;;;20.91;100.00;156739.56;5070979;28;20529;-89
2023/08/25 01:19:44;;;;;;;3.60;3.30;;;;;;;20.97;100.00;156755.25;5024366;28;20446;-89
2023/08/25 01:22:14;;;;;;;4.27;3.40;;;;;;;20.97;100.00;156755.25;5065727;28;20776;-89
2023/08/25 01:24:42;;;;;;;4.27;3.33;;;;;;;20.94;100.00;156747.41;5048816;28;20458;-89
2023/08/25 01:27:11;;;;;;;4.20;2.77;;;;;;;20.97;100.00;156755.25;5066046;28;20526;-89
2023/08/25 01:29:42;;;;;;;3.40;2.97;;;;;;;21.04;100.00;156773.50;5020683;28;20461;-88
2023/08/25 01:32:08;;;;;;;3.30;2.70;;;;;;;21.00;100.00;156763.03;5037610;28;20518;-89
2023/08/25 01:34:36;;;;;;;3.73;3.00;;;;;;;20.99;100.00;156760.44;5034713;28;20458;-89
2023/08/25 01:37:05;;;;;;;3.80;2.70;;;;;;;21.02;100.00;156768.28;5050235;28;20435;-89
2023/08/25 01:39:34;;;;;;;3.53;2.97;;;;;;;21.03;100.00;156770.88;5050312;28;20447;-89
2023/08/25 01:42:04;;;;;;;3.63;3.03;;;;;;;21.03;100.00;156770.88;5055585;28;20454;-88
2023/08/25 01:44:33;;;;;;;4.30;3.00;;;;;;;21.03;100.00;156770.88;5024959;28;20467;-89
2023/08/25 01:47:04;;;;;;;2.90;2.70;;;;;;;21.00;100.00;156763.03;5041224;28;20557;-89
2023/08/25 01:49:31;;;;;;;5.50;2.63;;;;;;;20.97;100.00;156755.25;5044735;28;20456;-88
2023/08/25 01:51:59;;;;;;;3.23;2.93;;;;;;;20.98;100.00;156759.13;5047568;28;20458;-88
2023/08/25 01:54:26;;;;;;;6.53;3.40;;;;;;;20.95;100.00;156750.00;5048095;28;20449;-89
2023/08/25 01:56:52;;;;;;;3.37;2.83;;;;;;;20.96;100.00;156752.63;5064441;28;20835;-88
2023/08/25 01:59:19;;;;;;;4.07;2.90;;;;;;;20.95;100.00;156750.00;5030299;28;20451;-88
2023/08/25 02:01:47;;;;;;;4.30;3.10;;;;;;;20.91;100.00;156739.56;5031832;28;20439;-88
2023/08/25 02:04:13;;;;;;;3.50;2.90;;;;;;;20.92;100.00;156742.16;5014687;28;20456;-89
2023/08/25 02:06:40;;;;;;;3.80;3.23;;;;;;;20.88;100.00;156731.75;5057606;28;20445;-88
2023/08/25 02:09:07;;;;;;;3.97;3.03;;;;;;;20.85;100.00;156723.91;5046278;28;20469;-88
2023/08/25 02:11:33;;;;;;;3.67;3.17;;;;;;;20.82;100.00;156716.06;5052630;28;20446;-88
2023/08/25 02:14:00;;;;;;;3.20;2.90;;;;;;;20.80;100.00;156710.84;5068310;28;20446;-88
2023/08/25 02:16:26;;;;;;;3.80;3.10;;;;;;;20.79;100.00;156708.22;5051884;28;20510;-89
2023/08/25 02:18:54;;;;;;;5.80;3.07;;;;;;;20.75;100.00;156697.81;5052180;28;20532;-89
2023/08/25 02:21:21;;;;;;;5.10;3.23;;;;;;;20.70;100.00;156684.78;5035729;28;20438;-89
2023/08/25 02:23:47;;;;;;;4.47;3.40;;;;;;;20.69;100.00;156682.16;5041758;28;20474;-89
2023/08/25 02:26:14;;;;;;;4.10;3.10;;;;;;;20.69;100.00;156682.16;5048308;28;20955;-88
2023/08/25 02:28:42;;;;;;;4.60;3.33;;;;;;;20.69;100.00;156683.47;5052416;28;20536;-89
2023/08/25 02:31:08;;;;;;;3.43;2.70;;;;;;;20.62;100.00;156666.47;5054234;28;20518;-87
2023/08/25 02:33:35;;;;;;;4.30;3.40;;;;;;;20.61;100.00;156662.59;5045674;28;20458;-89
2023/08/25 02:36:03;;;;;;;3.70;3.13;;;;;;;20.63;100.00;156667.78;5050655;28;20549;-89
2023/08/25 02:38:30;;;;;;;3.43;3.13;;;;;;;20.58;100.00;156656.06;5044685;28;20437;-89
2023/08/25 02:40:56;;;;;;;3.63;3.33;;;;;;;20.56;100.00;156650.84;5067332;28;20460;-89
2023/08/25 02:43:23;;;;;;;3.67;3.33;;;;;;;20.53;100.00;156643.03;5065643;28;20455;-88
2023/08/25 02:45:49;;;;;;;4.43;3.03;;;;;;;20.51;100.00;156637.81;5022997;28;20452;-89
2023/08/25 02:48:16;;;;;;;3.97;3.23;;;;;;;20.45;100.00;156622.16;5063262;28;20454;-89
2023/08/25 02:50:42;;;;;;;4.07;3.53;;;;;;;20.48;100.00;156629.97;5017067;28;20495;-89
2023/08/25 02:53:10;;;;;;;5.27;3.23;;;;;;;20.46;100.00;156624.78;5056146;28;20987;-89
2023/08/25 02:55:39;;;;;;;4.80;3.33;;;;;;;20.42;100.00;156614.31;5050128;28;20484;-89
2023/08/25 02:58:05;;;;;;;3.87;3.50;;;;;;;20.41;100.00;156611.69;5052219;28;20551;-89
2023/08/25 03:00:32;;;;;;;3.20;2.87;;;;;;;20.39;100.00;156605.16;5052020;28;20466;-89
2023/08/25 03:02:58;;;;;;;4.40;3.27;;;;;;;20.37;100.00;156601.28;5015608;28;21304;-87
2023/08/25 03:05:25;;;;;;;4.50;3.60;;;;;;;20.37;100.00;156601.28;5048232;28;20525;-87
2023/08/25 03:07:52;;;;;;;4.60;3.33;;;;;;;20.35;100.00;156594.75;5015619;28;21018;-88
2023/08/25 03:10:21;;;;;;;4.13;3.17;;;;;;;20.34;100.00;156592.13;5018793;28;20994;-88
2023/08/25 03:12:47;;;;;;;6.30;3.80;;;;;;;20.34;100.00;156593.44;5049426;28;20449;-88
2023/08/25 03:15:14;;;;;;;3.90;3.53;;;;;;;20.30;100.00;156583.03;5042294;28;20478;-88
2023/08/25 03:17:42;;;;;;;3.53;3.23;;;;;;;20.31;100.00;156585.63;5044742;28;20464;-88
2023/08/25 03:20:09;;;;;;;4.20;3.80;;;;;;;20.31;100.00;156585.63;5031023;28;20457;-88
2023/08/25 03:22:35;;;;;;;4.93;3.47;;;;;;;20.29;100.00;156580.41;5048880;28;20455;-87
2023/08/25 03:25:02;;;;;;;4.80;3.20;;;;;;;20.27;100.00;156575.19;5051109;28;20450;-87
2023/08/25 03:27:32;;;;;;;3.83;3.53;;;;;;;20.29;100.00;156580.41;5051609;28;20532;-87
2023/08/25 03:29:59;;;;;;;3.83;3.50;;;;;;;20.27;100.00;156575.19;5036675;28;20454;-87
2023/08/25 03:32:26;;;;;;;4.20;3.30;;;;;;;20.25;100.00;156568.69;5054763;28;20445;-87
2023/08/25 03:34:52;;;;;;;3.73;3.20;;;;;;;20.22;100.00;156562.13;5037816;28;20548;-87
2023/08/25 03:37:19;;;;;;;3.83;3.50;;;;;;;20.22;100.00;156560.81;5033070;28;20491;-82
2023/08/25 03:39:45;;;;;;;4.20;3.27;;;;;;;20.20;100.00;156555.59;5034006;28;20471;-83
2023/08/25 03:42:12;;;;;;;7.60;3.87;;;;;;;20.23;100.00;156563.38;5034156;28;20542;-84
2023/08/25 03:44:40;;;;;;;4.00;3.60;;;;;;;20.20;100.00;156556.84;5051460;28;20498;-84
2023/08/25 03:47:07;;;;;;;4.87;3.90;;;;;;;20.20;100.00;156556.84;5052337;28;20475;-84
2023/08/25 03:49:34;;;;;;;4.70;4.20;;;;;;;20.17;100.00;156549.06;5019380;28;20455;-84
2023/08/25 03:52:00;;;;;;;5.63;3.47;;;;;;;20.21;100.00;156559.50;5067094;28;20434;-83
2023/08/25 03:54:31;;;;;;;4.80;3.57;;;;;;;20.21;100.00;156559.50;5030695;28;20878;-84
2023/08/25 03:56:57;;;;;;;5.40;3.80;;;;;;;20.19;100.00;156554.28;5032602;28;22297;-74
2023/08/25 03:59:24;;;;;;;4.03;3.30;;;;;;;20.19;100.00;156552.97;5050041;28;20462;-74
2023/08/25 04:01:52;;;;;;;4.67;4.17;;;;;;;20.14;100.00;156541.25;5011637;28;20468;-75
2023/08/25 04:04:18;;;;;;;5.33;4.23;;;;;;;20.12;100.00;156536.00;5025352;28;20931;-75
2023/08/25 04:06:45;;;;;;;4.00;3.60;;;;;;;20.12;100.00;156534.72;5045903;28;20459;-75
2023/08/25 04:09:13;;;;;;;5.43;3.90;;;;;;;20.08;100.00;156525.59;5011325;28;20471;-74
2023/08/25 04:11:39;;;;;;;4.37;3.50;;;;;;;20.08;100.00;156525.59;5031040;28;20445;-74
2023/08/25 04:14:06;;;;;;;5.40;3.60;;;;;;;20.08;100.00;156525.59;5041062;28;20455;-74
2023/08/25 04:16:35;;;;;;;4.00;3.50;;;;;;;20.13;100.00;156537.31;5005752;28;20467;-74
2023/08/25 04:19:03;;;;;;;3.80;3.40;;;;;;;20.06;100.00;156520.38;5013265;28;20451;-74
2023/08/25 04:21:32;;;;;;;6.30;3.70;;;;;;;20.08;100.00;156525.59;5028850;28;20454;-75
2023/08/25 04:23:59;;;;;;;5.40;3.73;;;;;;;20.06;100.00;156520.38;5043499;28;20471;-75
2023/08/25 04:26:26;;;;;;;5.50;3.70;;;;;;;20.09;100.00;156528.22;5029427;28;20451;-75
2023/08/25 04:28:53;;;;;;;4.60;3.73;;;;;;;20.05;100.00;156517.75;5055058;28;20454;-74
2023/08/25 04:31:20;;;;;;;5.67;4.03;;;;;;;20.05;100.00;156517.75;5053919;28;20459;-74
2023/08/25 04:33:53;;;;;;;4.10;3.70;;;;;;;20.04;100.00;156515.19;5040518;28;20450;-75
2023/08/25 04:36:21;;;;;;;4.47;4.07;;;;;;;20.02;100.00;156509.91;5029281;28;20474;-75
2023/08/25 04:38:48;;;;;;;4.30;3.60;;;;;;;20.02;100.00;156509.91;5029952;28;20470;-75
2023/08/25 04:41:15;;;;;;;4.20;3.80;;;;;;;19.99;100.00;156502.09;5005445;28;20518;-75
2023/08/25 04:43:42;;;;;;;5.07;3.50;;;;;;;19.98;100.00;156499.50;5013901;28;20463;-75
2023/08/25 04:46:08;;;;;;;3.87;3.57;;;;;;;20.02;100.00;156509.91;5007090;28;20546;-75
2023/08/25 04:48:35;;;;;;;5.23;3.90;;;;;;;19.99;100.00;156503.41;5022228;28;20540;-75
2023/08/25 04:51:02;;;;;;;4.30;3.90;;;;;;;19.98;100.00;156499.50;5029505;28;20459;-75
2023/08/25 04:53:30;;;;;;;4.27;3.87;;;;;;;19.93;100.00;156486.47;5048602;28;20497;-75
2023/08/25 04:55:56;;;;;;;4.47;4.07;;;;;;;19.92;100.00;156483.84;5025058;28;20967;-75
2023/08/25 04:58:23;;;;;;;4.57;3.57;;;;;;;19.90;100.00;156478.66;5055538;28;20522;-75
2023/08/25 05:00:51;;;;;;;4.57;4.17;;;;;;;19.91;100.00;156481.22;5063995;28;20442;-75
2023/08/25 05:03:17;;;;;;;5.80;4.30;;;;;;;19.91;100.00;156481.22;5030933;28;20441;-75
2023/08/25 05:05:47;;;;;;;4.67;4.17;;;;;;;19.91;100.00;156482.53;5031425;28;20461;-75
2023/08/25 05:08:14;;;;;;;4.00;3.60;;;;;;;19.88;100.00;156474.69;5031537;28;20541;-76
2023/08/25 05:10:42;;;;;;;5.10;3.70;;;;;;;19.86;100.00;156468.19;5054974;28;20896;-75
2023/08/25 05:13:09;;;;;;;5.30;3.90;;;;;;;19.87;100.00;156472.13;5016857;28;20822;-75
2023/08/25 05:15:36;;;;;;;4.60;3.80;;;;;;;19.92;100.00;156483.84;5034082;28;20822;-75
2023/08/25 05:18:03;;;;;;;4.17;3.50;;;;;;;19.97;100.00;156496.88;5036629;28;20446;-75
2023/08/25 05:20:30;;;;;;;4.77;3.57;;;;;;;20.04;100.00;156515.19;5053895;28;20976;-75
2023/08/25 05:22:57;;;;;;;4.23;3.70;;;;;;;20.13;100.00;156538.63;5031476;28;20465;-75
2023/08/25 05:25:24;;;;;;;4.40;4.00;;;;;;;20.18;100.00;156551.66;5049961;28;20459;-75
2023/08/25 05:27:52;;;;;;;4.47;3.63;;;;;;;20.27;100.00;156573.88;5035252;28;20462;-75
2023/08/25 05:30:19;;;;;;;3.93;3.53;;;;;;;20.38;100.00;156602.59;5056397;28;20457;-75
2023/08/25 05:32:46;;;;;;;4.90;4.00;;;;;;;20.50;100.00;156635.19;5032272;28;20458;-74
2023/08/25 05:35:41;;;;;;;4.30;3.70;;;;;;;20.68;100.00;156679.56;5030978;28;20454;-75
2023/08/25 05:38:10;;;;;;;3.50;3.20;;;;;;;20.85;100.00;156723.91;5002907;28;20454;-75
2023/08/25 05:40:36;;;;;;;5.10;4.00;;;;;;;21.10;100.00;156789.22;5016695;28;20466;-75
2023/08/25 05:43:04;;;;;;;4.87;4.30;;;;;;;21.24;100.00;156825.72;5067235;28;20955;-75
2023/08/25 05:45:31;;;;;;;4.50;3.63;;;;;;;21.46;100.00;156883.19;5051766;28;20556;-74
2023/08/25 05:47:58;;;;;;;3.80;3.40;;;;;;;21.58;100.00;156913.16;5070401;28;20534;-74
2023/08/25 05:50:24;;;;;;;5.03;3.10;;;;;;;21.64;100.00;156930.16;5034373;28;20513;-75
2023/08/25 05:52:53;;;;;;;4.60;3.57;;;;;;;21.62;100.00;156924.97;5048454;28;20474;-75
2023/08/25 05:55:19;;;;;;;4.10;3.70;;;;;;;21.62;100.00;156924.97;5051882;28;20446;-75
2023/08/25 05:57:46;;;;;;;4.00;3.50;;;;;;;21.65;100.00;156932.78;5065056;28;21112;-74
2023/08/25 06:00:14;;;;;;;3.63;3.30;;;;;;;21.69;100.00;156943.22;5069441;28;20521;-75
2023/08/25 06:02:42;;;;;;;3.53;2.90;;;;;;;21.68;100.00;156940.59;5065513;28;20519;-75
2023/08/25 06:05:09;;;;;;;5.93;3.53;;;;;;;21.62;100.00;156924.97;5021455;28;20575;-75
2023/08/25 06:07:35;;;;;;;4.63;3.50;;;;;;;21.62;100.00;156924.97;5050599;28;20988;-75
2023/08/25 06:10:02;;;;;;;7.27;3.97;;;;;;;21.59;100.00;156917.13;5052806;28;20455;-75
2023/08/25 06:12:29;;;;;;;4.90;3.60;;;;;;;21.57;100.00;156911.91;5051884;28;21001;-74
2023/08/25 06:14:55;;;;;;;4.57;3.57;;;;;;;21.57;100.00;156911.91;5051799;28;20461;-75
2023/08/25 06:17:23;;;;;;;5.93;3.77;;;;;;;21.55;100.00;156905.38;5050829;28;20470;-75
2023/08/25 06:19:50;;;;;;;4.13;3.73;;;;;;;21.43;100.00;156875.34;5062394;28;20461;-75
2023/08/25 06:22:16;;;;;;;4.70;3.97;;;;;;;21.37;100.00;156859.66;5054314;28;20478;-75
2023/08/25 06:24:43;;;;;;;6.87;4.30;;;;;;;21.33;100.00;156847.94;5052625;28;20542;-75
2023/08/25 06:27:10;;;;;;;7.73;4.13;;;;;;;21.25;100.00;156828.34;5052484;28;20823;-75
2023/08/25 06:29:36;;;;;;;8.90;4.33;;;;;;;21.23;100.00;156823.16;5051038;28;20460;-74
2023/08/25 06:32:03;;;;;;;9.20;4.30;;;;;;;21.18;100.00;156811.38;5053200;28;20447;-75
2023/08/25 06:34:31;;;;;;;5.73;4.07;;;;;;;21.22;100.00;156820.53;5066591;28;20514;-78
2023/08/25 06:36:57;;;;;;;5.90;4.17;;;;;;;21.21;100.00;156817.91;5055169;28;20481;-79
2023/08/25 06:39:25;;;;;;;5.50;4.03;;;;;;;21.24;100.00;156827.03;5050075;28;20457;-79
2023/08/25 06:41:52;;;;;;;3.93;3.40;;;;;;;21.23;100.00;156824.41;5054141;28;20458;-79
2023/08/25 06:44:19;;;;;;;5.67;4.27;;;;;;;21.22;100.00;156820.53;5050605;28;20454;-79
2023/08/25 06:46:45;;;;;;;6.87;4.40;;;;;;;21.17;100.00;156807.47;5065598;28;20898;-78
2023/08/25 06:49:12;;;;;;;5.30;4.53;;;;;;;21.19;100.00;156814.00;5052065;28;20522;-78
2023/08/25 06:51:40;;;;;;;4.53;4.13;;;;;;;21.16;100.00;156804.84;5069887;28;20459;-78
2023/08/25 06:54:07;;;;;;;5.60;4.30;;;;;;;21.16;100.00;156804.84;5069272;28;20471;-79
2023/08/25 06:56:34;;;;;;;7.97;4.60;;;;;;;21.14;100.00;156800.94;5071413;28;20466;-78
2023/08/25 06:59:01;;;;;;;5.60;4.33;;;;;;;21.12;100.00;156795.75;5068470;28;20477;-78
2023/08/25 07:01:27;;;;;;;4.67;4.20;;;;;;;21.07;100.00;156781.38;5055401;28;20505;-78
2023/08/25 07:03:54;;;;;;;5.30;4.07;;;;;;;21.14;100.00;156799.63;5072123;28;20460;-78
2023/08/25 07:06:20;;;;;;;5.00;4.33;;;;;;;21.12;100.00;156794.44;5021185;28;20501;-80
2023/08/25 07:08:48;;;;;;;4.60;3.70;;;;;;;21.02;100.00;156769.56;5067060;28;20799;-77
2023/08/25 07:11:15;;;;;;;4.43;4.03;;;;;;;20.96;100.00;156752.63;5019361;28;20860;-77
2023/08/25 07:13:41;;;;;;;8.97;4.20;;;;;;;20.90;100.00;156736.94;5055226;28;20541;-80
2023/08/25 07:16:14;;;;;;;5.00;4.40;;;;;;;20.86;100.00;156726.53;5048909;28;20462;-80
2023/08/25 07:18:47;;;;;;;5.13;4.20;;;;;;;20.82;100.00;156716.06;5022911;28;20513;-79
2023/08/25 07:21:16;;;;;;;5.03;4.63;;;;;;;20.75;100.00;156697.81;5021782;28;20453;-80
2023/08/25 07:23:43;;;;;;;4.57;3.67;;;;;;;20.70;100.00;156686.09;5003946;28;20552;-87
2023/08/25 07:26:11;;;;;;;4.87;4.30;;;;;;;20.69;100.00;156683.47;5071319;28;20457;-88
2023/08/25 07:28:38;;;;;;;3.80;3.30;;;;;;;20.68;100.00;156679.56;5073673;28;20507;-89
2023/08/25 07:31:05;;;;;;;4.40;4.00;;;;;;;20.65;100.00;156673.03;5070210;28;20442;-89
2023/08/25 07:33:32;;;;;;;6.37;4.80;;;;;;;20.61;100.00;156662.59;5068895;28;20504;-89
2023/08/25 07:35:58;;;;;;;5.07;3.93;;;;;;;20.59;100.00;156658.69;5054763;28;20453;-90
2023/08/25 07:38:25;;;;;;;7.50;5.03;;;;;;;20.59;100.00;156658.69;5039952;28;20896;-89
2023/08/25 07:40:51;;;;;;;6.80;4.57;;;;;;;20.53;100.00;156643.03;5053356;28;20477;-88
2023/08/25 07:43:19;;;;;;;5.37;3.90;;;;;;;20.52;100.00;156639.06;5015811;28;20443;-89
2023/08/25 07:45:46;;;;;;;5.30;4.43;;;;;;;20.45;100.00;156622.16;5020270;28;20486;-90
2023/08/25 07:48:12;;;;;;;4.83;4.20;;;;;;;20.38;100.00;156603.91;5072139;28;20446;-89
2023/08/25 07:50:39;;;;;;;5.07;4.23;;;;;;;20.35;100.00;156596.06;5018764;28;20827;-89
2023/08/25 07:53:06;;;;;;;4.70;4.30;;;;;;;20.33;100.00;156590.81;5024513;28;20479;-89
2023/08/25 07:55:34;;;;;;;5.80;5.20;;;;;;;20.29;100.00;156580.41;5015830;28;20480;-89
2023/08/25 07:58:01;;;;;;;7.00;5.47;;;;;;;20.30;100.00;156581.72;5015817;28;20471;-89
2023/08/25 08:00:30;;;;;;;6.07;4.80;;;;;;;20.26;100.00;156572.56;5010112;28;20460;-90
2023/08/25 08:02:56;;;;;;;5.20;4.70;;;;;;;20.25;100.00;156570.00;4998542;28;20450;-89
2023/08/25 08:05:23;;;;;;;5.10;4.60;;;;;;;20.23;100.00;156563.38;5016595;28;20468;-89
2023/08/25 08:07:50;;;;;;;4.00;3.30;;;;;;;20.19;100.00;156554.28;5016112;28;20449;-89
2023/08/25 08:10:17;;;;;;;5.23;4.57;;;;;;;20.17;100.00;156549.06;5025980;28;20457;-88
2023/08/25 08:12:44;;;;;;;5.90;4.00;;;;;;;20.17;100.00;156549.06;5015844;28;20457;-89
2023/08/25 08:15:12;;;;;;;7.30;4.60;;;;;;;20.14;100.00;156541.25;5017432;28;20466;-88
2023/08/25 08:17:40;;;;;;;6.30;4.83;;;;;;;20.12;100.00;156534.72;4997799;28;20978;-88
2023/08/25 08:20:12;;;;;;;5.00;3.80;;;;;;;20.14;100.00;156541.25;5012808;28;20450;-88
2023/08/25 08:22:39;;;;;;;5.13;4.40;;;;;;;20.11;100.00;156533.41;5033123;28;20460;-87
2023/08/25 08:25:09;;;;;;;4.90;4.13;;;;;;;20.11;100.00;156533.41;5024435;28;20455;-87
2023/08/25 08:27:35;;;;;;;4.87;4.37;;;;;;;20.10;100.00;156530.78;5028923;28;20455;-88
2023/08/25 08:30:02;;;;;;;5.30;4.17;;;;;;;20.06;100.00;156520.38;5006928;28;21102;-88
2023/08/25 08:32:29;;;;;;;4.27;3.87;;;;;;;20.07;100.00;156522.94;5027985;28;20445;-88
2023/08/25 08:34:57;;;;;;;5.40;4.70;;;;;;;20.04;100.00;156516.44;5014274;28;20460;-88
2023/08/25 08:37:23;;;;;;;5.97;4.43;;;;;;;20.03;100.00;156512.53;5010661;28;20997;-88
2023/08/25 08:39:51;;;;;;;5.90;4.63;;;;;;;20.02;100.00;156509.91;5014391;28;20957;-87
2023/08/25 08:42:18;;;;;;;4.57;4.17;;;;;;;20.00;100.00;156504.72;4999109;28;20531;-88
2023/08/25 08:44:46;;;;;;;4.53;4.03;;;;;;;20.04;100.00;156515.19;4996914;28;20460;-88
2023/08/25 08:47:13;;;;;;;6.17;4.40;;;;;;;20.05;100.00;156519.06;4997250;28;20448;-88
2023/08/25 08:49:41;;;;;;;5.77;4.50;;;;;;;20.04;100.00;156515.19;4992913;28;20921;-89
2023/08/25 08:52:09;;;;;;;4.57;4.17;;;;;;;20.03;100.00;156512.53;5004000;28;20818;-89
2023/08/25 08:54:37;;;;;;;5.53;4.30;;;;;;;20.07;100.00;156522.94;5022178;28;20942;-89
2023/08/25 08:57:04;;;;;;;5.23;4.73;;;;;;;20.08;100.00;156525.59;5067774;28;20474;-88
2023/08/25 08:59:30;;;;;;;5.30;3.83;;;;;;;20.13;100.00;156538.63;5004415;28;20462;-89
2023/08/25 09:01:58;;;;;;;4.63;4.20;;;;;;;20.08;100.00;156525.59;5020256;28;20454;-89
2023/08/25 09:04:25;;;;;;;4.83;3.90;;;;;;;20.09;100.00;156528.22;5047174;28;20464;-90
2023/08/25 09:06:52;;;;;;;5.87;4.80;;;;;;;20.12;100.00;156534.72;5055212;28;20446;-89
2023/08/25 09:09:20;;;;;;;5.53;4.10;;;;;;;20.12;100.00;156536.00;5058654;28;20450;-89
2023/08/25 09:11:47;;;;;;;4.93;4.20;;;;;;;20.14;100.00;156541.25;5021693;28;20566;-89
2023/08/25 09:14:23;;;;;;;5.93;4.70;;;;;;;20.13;100.00;156538.63;5064572;28;20536;-88
2023/08/25 09:16:50;;;;;;;7.70;5.27;;;;;;;20.18;100.00;156551.66;5036492;28;20430;-89
2023/08/25 09:19:17;;;;;;;5.87;4.90;;;;;;;20.15;100.00;156542.56;5054964;28;20450;-88
2023/08/25 09:21:45;;;;;;;5.47;4.87;;;;;;;20.15;100.00;156543.81;5050569;28;20822;-88
2023/08/25 09:24:20;;;;;;;6.13;5.03;;;;;;;20.21;100.00;156558.19;5011511;28;20474;-88
2023/08/25 09:26:47;;;;;;;5.20;4.70;;;;;;;20.23;100.00;156564.69;5013558;28;20443;-88
2023/08/25 09:29:13;;;;;;;5.50;5.00;;;;;;;20.26;100.00;156572.56;5072390;28;20454;-88
2023/08/25 09:31:40;;;;;;;5.93;4.63;;;;;;;20.32;100.00;156588.25;5047045;28;20498;-88
2023/08/25 09:34:11;;;;;;;6.20;5.20;;;;;;;20.40;100.00;156607.78;5013539;28;20864;-87
2023/08/25 09:36:51;;;;;;;5.27;4.80;;;;;;;20.46;100.00;156623.47;5069941;28;20492;-88
2023/08/25 09:39:17;;;;;;;6.07;4.63;;;;;;;20.54;100.00;156645.59;5037049;28;20454;-88
2023/08/25 09:41:46;;;;;;;6.17;5.13;;;;;;;20.61;100.00;156662.59;5018739;28;20459;-88
2023/08/25 09:44:13;;;;;;;5.40;4.90;;;;;;;20.73;100.00;156692.63;5067059;28;20464;-88
2023/08/25 09:46:40;;;;;;;5.50;4.90;;;;;;;20.78;100.00;156705.66;5070646;28;20827;-88
2023/08/25 09:49:08;;;;;;;11.30;5.63;;;;;;;20.86;100.00;156726.53;5069995;28;20499;-88
2023/08/25 09:51:36;;;;;;;5.93;5.33;;;;;;;20.97;100.00;156755.25;5066045;28;20454;-88
2023/08/25 09:54:07;;;;;;;5.90;5.40;;;;;;;21.12;100.00;156795.75;5040328;28;20616;-88
2023/08/25 09:56:34;;;;;;;5.87;5.20;;;;;;;21.26;100.00;156829.66;5034808;28;20458;-87
2023/08/25 09:59:03;;;;;;;6.70;4.80;;;;;;;21.34;100.00;156851.81;5069133;28;20470;-87
2023/08/25 10:01:30;;;;;;;6.83;5.03;;;;;;;21.45;100.00;156880.53;5065089;28;20465;-87
2023/08/25 10:03:57;;;;;;;6.03;5.23;;;;;;;21.54;100.00;156902.75;5071327;28;20466;-86
2023/08/25 10:06:24;;;;;;;5.10;4.60;;;;;;;21.65;100.00;156932.78;5072828;28;20471;-86
2023/08/25 10:08:50;;;;;;;5.87;4.83;;;;;;;21.75;100.00;156957.59;5004789;28;20460;-85
2023/08/25 10:11:17;;;;;;;5.73;5.13;;;;;;;21.86;100.00;156986.38;5069088;28;20446;-85
2023/08/25 10:13:45;;;;;;;6.90;4.97;;;;;;;21.92;100.00;157000.72;5052244;28;20461;-85
2023/08/25 10:16:13;;;;;;;7.57;5.10;;;;;;;21.89;100.00;156992.88;5052275;28;20447;-85
2023/08/25 10:18:41;;;;;;;8.70;4.33;;;;;;;21.92;100.00;157000.72;5015971;28;20477;-85
2023/08/25 10:21:09;;;;;;;5.00;4.50;;;;;;;21.93;100.00;157004.63;5049493;28;20470;-85
2023/08/25 10:23:37;;;;;;;5.00;4.50;;;;;;;22.02;100.00;157026.84;5062796;28;20446;-85
2023/08/25 10:26:04;;;;;;;4.33;3.93;;;;;;;22.05;100.00;157034.69;5066498;28;20508;-84
2023/08/25 10:28:31;;;;;;;4.57;4.13;;;;;;;22.10;100.00;157047.72;5068146;28;20447;-85
2023/08/25 10:30:58;;;;;;;5.47;4.97;;;;;;;22.10;100.00;157049.06;5054094;28;20543;-85
2023/08/25 10:33:27;;;;;;;4.30;3.90;;;;;;;22.16;100.00;157063.41;5073966;28;20451;-84
2023/08/25 10:35:55;;;;;;;3.60;3.30;;;;;;;22.14;100.00;157058.16;5072658;28;20446;-84
2023/08/25 10:38:25;;;;;;;4.60;4.20;;;;;;;22.12;100.00;157052.94;5069280;28;20803;-84
2023/08/25 10:40:52;;;;;;;4.63;4.20;;;;;;;22.14;100.00;157059.47;5053639;28;20950;-84
2023/08/25 10:43:24;;;;;;;5.03;4.43;;;;;;;22.19;100.00;157071.22;5072423;28;20537;-85
2023/08/25 10:45:51;;;;;;;4.30;3.90;;;;;;;22.22;100.00;157079.06;5042477;28;21245;-84
2023/08/25 10:48:19;;;;;;;4.90;3.80;;;;;;;22.20;100.00;157073.84;5022962;28;20442;-85
2023/08/25 10:50:47;;;;;;;4.10;3.70;;;;;;;22.21;100.00;157076.47;5049764;28;21090;-85
2023/08/25 10:53:35;;;;;;;6.20;3.90;;;;;;;22.27;100.00;157092.13;5017087;28;20618;-85
2023/08/25 10:56:13;;;;;;;5.40;3.40;;;;;;;22.27;100.00;157092.13;5071038;28;20455;-85
2023/08/25 10:59:04;;;;;;;7.20;3.57;;;;;;;22.36;100.00;157115.63;5070661;28;20531;-85
2023/08/25 11:01:57;;;;;;;4.27;3.83;;;;;;;22.47;100.00;157144.38;5051022;28;20565;-86
2023/08/25 11:04:25;;;;;;;5.93;4.07;;;;;;;22.45;100.00;157140.44;5038515;28;20451;-87
2023/08/25 11:06:56;;;;;;;5.13;4.00;;;;;;;22.52;100.00;157157.44;5066364;28;20442;-86
2023/08/25 11:09:31;;;;;;;3.70;3.40;;;;;;;22.58;100.00;157173.13;5037826;28;20515;-87
2023/08/25 11:11:59;;;;;;;4.33;3.90;;;;;;;22.64;100.00;157188.81;5073263;28;20843;-87
2023/08/25 11:14:28;;;;;;;3.67;3.37;;;;;;;22.66;100.00;157194.09;5066211;28;20553;-87
2023/08/25 11:16:54;;;;;;;5.10;4.30;;;;;;;22.71;100.00;157207.16;5064992;28;20458;-87
2023/08/25 11:19:21;;;;;;;5.00;4.50;;;;;;;22.74;100.00;157213.69;5055239;28;20482;-87